sensor_id;sensor_type;location;lat;lon;timestamp;temperature;humidity
2621;DHT22;1320;48.128;11.592;2022-07-01T00:01:38;20.80;99.90
2621;DHT22;1320;48.128;11.592;2022-07-01T00:04:06;20.70;99.90
2621;DHT22;1320;48.128;11.592;2022-07-01T00:06:32;20.70;99.90
2621;DHT22;1320;48.128;11.592;2022-07-01T00:08:58;20.70;99.90
2621;DHT22;1320;48.128;11.592;2022-07-01T00:11:24;20.60;99.90
2621;DHT22;1320;48.128;11.592;2022-07-01T00:13:49;20.60;99.90
2621;DHT22;1320;48.128;11.592;2022-07-01T00:16:15;20.70;99.90
2621;DHT22;1320;48.128;11.592;2022-07-01T00:18:41;20.70;99.90
2621;DHT22;1320;48.128;11.592;2022-07-01T00:21:07;20.80;99.90
2621;DHT22;1320;48.128;11.592;2022-07-01T00:23:33;20.90;99.90
2621;DHT22;1320;48.128;11.592;2022-07-01T00:25:58;20.90;99.90
2621;DHT22;1320;48.128;11.592;2022-07-01T00:28:24;20.90;99.90
2621;DHT22;1320;48.128;11.592;2022-07-01T00:30:49;21.00;99.90
2621;DHT22;1320;48.128;11.592;2022-07-01T00:33:15;21.00;99.90
2621;DHT22;1320;48.128;11.592;2022-07-01T00:35:41;21.10;99.90
2621;DHT22;1320;48.128;11.592;2022-07-01T00:38:06;21.10;99.90
2621;DHT22;1320;48.128;11.592;2022-07-01T00:40:32;21.10;99.90
2621;DHT22;1320;48.128;11.592;2022-07-01T00:42:58;21.20;99.90
2621;DHT22;1320;48.128;11.592;2022-07-01T00:45:23;21.20;99.90
2621;DHT22;1320;48.128;11.592;2022-07-01T00:47:50;21.20;99.90
2621;DHT22;1320;48.128;11.592;2022-07-01T00:50:16;21.20;99.90
2621;DHT22;1320;48.128;11.592;2022-07-01T00:52:43;21.10;99.90
2621;DHT22;1320;48.128;11.592;2022-07-01T00:55:11;21.10;99.90
2621;DHT22;1320;48.128;11.592;2022-07-01T00:57:39;21.10;99.90
2621;DHT22;1320;48.128;11.592;2022-07-01T01:00:13;21.10;99.90
2621;DHT22;1320;48.128;11.592;2022-07-01T01:02:40;21.10;99.90
2621;DHT22;1320;48.128;11.592;2022-07-01T01:05:07;21.10;99.90
2621;DHT22;1320;48.128;11.592;2022-07-01T01:07:34;21.10;99.90
2621;DHT22;1320;48.128;11.592;2022-07-01T01:10:01;21.10;99.90
2621;DHT22;1320;48.128;11.592;2022-07-01T01:12:29;21.10;99.90
2621;DHT22;1320;48.128;11.592;2022-07-01T01:14:56;21.10;99.90
2621;DHT22;1320;48.128;11.592;2022-07-01T01:17:22;21.10;99.90
2621;DHT22;1320;48.128;11.592;2022-07-01T01:19:50;21.00;99.90
2621;DHT22;1320;48.128;11.592;2022-07-01T01:22:17;21.00;99.90
2621;DHT22;1320;48.128;11.592;2022-07-01T01:24:44;21.00;99.90
2621;DHT22;1320;48.128;11.592;2022-07-01T01:27:10;21.00;99.90
2621;DHT22;1320;48.128;11.592;2022-07-01T01:29:36;20.90;99.90
2621;DHT22;1320;48.128;11.592;2022-07-01T01:32:03;20.90;99.90
2621;DHT22;1320;48.128;11.592;2022-07-01T01:34:29;21.00;99.90
2621;DHT22;1320;48.128;11.592;2022-07-01T01:36:55;21.00;99.90
2621;DHT22;1320;48.128;11.592;2022-07-01T01:39:20;21.00;99.90
2621;DHT22;1320;48.128;11.592;2022-07-01T01:41:47;21.00;99.90
2621;DHT22;1320;48.128;11.592;2022-07-01T01:44:13;21.00;99.90
2621;DHT22;1320;48.128;11.592;2022-07-01T01:46:38;21.00;99.90
2621;DHT22;1320;48.128;11.592;2022-07-01T01:49:05;21.00;99.90
2621;DHT22;1320;48.128;11.592;2022-07-01T01:51:31;20.90;99.90
2621;DHT22;1320;48.128;11.592;2022-07-01T01:53:58;20.90;99.90
2621;DHT22;1320;48.128;11.592;2022-07-01T01:56:24;20.90;99.90
2621;DHT22;1320;48.128;11.592;2022-07-01T01:58:50;20.80;99.90
2621;DHT22;1320;48.128;11.592;2022-07-01T02:01:17;20.80;99.90
2621;DHT22;1320;48.128;11.592;2022-07-01T02:03:45;20.70;99.90
2621;DHT22;1320;48.128;11.592;2022-07-01T02:06:11;20.60;99.90
2621;DHT22;1320;48.128;11.592;2022-07-01T02:08:37;20.50;99.90
2621;DHT22;1320;48.128;11.592;2022-07-01T02:11:04;20.50;99.90
2621;DHT22;1320;48.128;11.592;2022-07-01T02:13:30;20.40;99.90
2621;DHT22;1320;48.128;11.592;2022-07-01T02:15:56;20.40;99.90
2621;DHT22;1320;48.128;11.592;2022-07-01T02:18:22;20.40;99.90
2621;DHT22;1320;48.128;11.592;2022-07-01T02:20:48;20.40;99.90
2621;DHT22;1320;48.128;11.592;2022-07-01T02:23:14;20.30;99.90
2621;DHT22;1320;48.128;11.592;2022-07-01T02:25:40;20.30;99.90
2621;DHT22;1320;48.128;11.592;2022-07-01T02:28:06;20.30;99.90
2621;DHT22;1320;48.128;11.592;2022-07-01T02:30:33;20.30;99.90
2621;DHT22;1320;48.128;11.592;2022-07-01T02:33:02;20.30;99.90
2621;DHT22;1320;48.128;11.592;2022-07-01T02:35:28;20.30;99.90
2621;DHT22;1320;48.128;11.592;2022-07-01T02:37:53;20.40;99.90
2621;DHT22;1320;48.128;11.592;2022-07-01T02:40:19;20.30;99.90
2621;DHT22;1320;48.128;11.592;2022-07-01T02:42:45;20.30;99.90
2621;DHT22;1320;48.128;11.592;2022-07-01T02:45:12;20.20;99.90
2621;DHT22;1320;48.128;11.592;2022-07-01T02:47:39;20.20;99.90
2621;DHT22;1320;48.128;11.592;2022-07-01T02:50:07;20.20;99.90
2621;DHT22;1320;48.128;11.592;2022-07-01T02:52:34;20.20;99.90
2621;DHT22;1320;48.128;11.592;2022-07-01T02:55:01;20.20;99.90
2621;DHT22;1320;48.128;11.592;2022-07-01T02:57:26;20.20;99.90
2621;DHT22;1320;48.128;11.592;2022-07-01T02:59:52;20.20;99.90
2621;DHT22;1320;48.128;11.592;2022-07-01T03:02:19;20.30;99.90
2621;DHT22;1320;48.128;11.592;2022-07-01T03:04:49;20.30;99.90
2621;DHT22;1320;48.128;11.592;2022-07-01T03:07:16;20.30;99.90
2621;DHT22;1320;48.128;11.592;2022-07-01T03:09:43;20.30;99.90
2621;DHT22;1320;48.128;11.592;2022-07-01T03:12:13;20.20;99.90
2621;DHT22;1320;48.128;11.592;2022-07-01T03:17:20;20.20;99.90
2621;DHT22;1320;48.128;11.592;2022-07-01T03:19:47;20.20;99.90
2621;DHT22;1320;48.128;11.592;2022-07-01T03:22:13;20.20;99.90
2621;DHT22;1320;48.128;11.592;2022-07-01T03:24:39;20.10;99.90
2621;DHT22;1320;48.128;11.592;2022-07-01T03:27:04;20.20;99.90
2621;DHT22;1320;48.128;11.592;2022-07-01T03:29:30;20.20;99.90
2621;DHT22;1320;48.128;11.592;2022-07-01T03:31:56;20.20;99.90
2621;DHT22;1320;48.128;11.592;2022-07-01T03:34:22;20.20;99.90
2621;DHT22;1320;48.128;11.592;2022-07-01T03:36:47;20.20;99.90
2621;DHT22;1320;48.128;11.592;2022-07-01T03:39:13;20.20;99.90
2621;DHT22;1320;48.128;11.592;2022-07-01T03:41:39;20.20;99.90
2621;DHT22;1320;48.128;11.592;2022-07-01T03:44:05;20.20;99.90
2621;DHT22;1320;48.128;11.592;2022-07-01T03:46:33;20.20;99.90
2621;DHT22;1320;48.128;11.592;2022-07-01T03:49:01;20.20;99.90
2621;DHT22;1320;48.128;11.592;2022-07-01T03:51:27;20.20;99.90
2621;DHT22;1320;48.128;11.592;2022-07-01T03:53:53;20.30;99.90
2621;DHT22;1320;48.128;11.592;2022-07-01T03:56:37;20.30;99.90
2621;DHT22;1320;48.128;11.592;2022-07-01T03:59:03;20.30;99.90
2621;DHT22;1320;48.128;11.592;2022-07-01T04:01:28;20.30;99.90
2621;DHT22;1320;48.128;11.592;2022-07-01T04:03:54;20.30;99.90
2621;DHT22;1320;48.128;11.592;2022-07-01T04:06:20;20.40;99.90
2621;DHT22;1320;48.128;11.592;2022-07-01T04:08:47;20.40;99.90
2621;DHT22;1320;48.128;11.592;2022-07-01T04:11:14;20.40;99.90
2621;DHT22;1320;48.128;11.592;2022-07-01T04:13:40;20.40;99.90
2621;DHT22;1320;48.128;11.592;2022-07-01T04:16:06;20.40;99.90
2621;DHT22;1320;48.128;11.592;2022-07-01T04:18:32;20.40;99.90
2621;DHT22;1320;48.128;11.592;2022-07-01T04:20:59;20.40;99.90
2621;DHT22;1320;48.128;11.592;2022-07-01T04:23:43;20.40;99.90
2621;DHT22;1320;48.128;11.592;2022-07-01T04:26:09;20.40;99.90
2621;DHT22;1320;48.128;11.592;2022-07-01T04:28:35;20.40;99.90
2621;DHT22;1320;48.128;11.592;2022-07-01T04:31:00;20.40;99.90
2621;DHT22;1320;48.128;11.592;2022-07-01T04:33:26;20.50;99.90
2621;DHT22;1320;48.128;11.592;2022-07-01T04:35:52;20.50;99.90
2621;DHT22;1320;48.128;11.592;2022-07-01T04:38:17;20.50;99.90
2621;DHT22;1320;48.128;11.592;2022-07-01T04:40:44;20.60;99.90
2621;DHT22;1320;48.128;11.592;2022-07-01T04:43:29;20.60;99.90
2621;DHT22;1320;48.128;11.592;2022-07-01T04:45:55;20.70;99.90
2621;DHT22;1320;48.128;11.592;2022-07-01T04:48:21;20.70;99.90
2621;DHT22;1320;48.128;11.592;2022-07-01T04:50:47;20.70;99.90
2621;DHT22;1320;48.128;11.592;2022-07-01T04:53:13;20.70;99.90
2621;DHT22;1320;48.128;11.592;2022-07-01T04:55:39;20.70;99.90
2621;DHT22;1320;48.128;11.592;2022-07-01T04:58:05;20.70;99.90
2621;DHT22;1320;48.128;11.592;2022-07-01T05:00:31;20.70;99.90
2621;DHT22;1320;48.128;11.592;2022-07-01T05:02:56;20.80;99.90
2621;DHT22;1320;48.128;11.592;2022-07-01T05:05:22;20.90;99.90
2621;DHT22;1320;48.128;11.592;2022-07-01T05:07:48;20.90;99.90
2621;DHT22;1320;48.128;11.592;2022-07-01T05:10:14;21.00;99.90
2621;DHT22;1320;48.128;11.592;2022-07-01T05:12:39;21.00;99.90
2621;DHT22;1320;48.128;11.592;2022-07-01T05:15:05;21.00;99.90
2621;DHT22;1320;48.128;11.592;2022-07-01T05:17:32;21.10;99.90
2621;DHT22;1320;48.128;11.592;2022-07-01T05:20:17;21.10;99.90
2621;DHT22;1320;48.128;11.592;2022-07-01T05:23:01;21.20;99.90
2621;DHT22;1320;48.128;11.592;2022-07-01T05:25:27;21.20;99.90
2621;DHT22;1320;48.128;11.592;2022-07-01T05:27:52;21.30;99.90
2621;DHT22;1320;48.128;11.592;2022-07-01T05:30:20;21.30;99.90
2621;DHT22;1320;48.128;11.592;2022-07-01T05:32:46;21.40;99.90
2621;DHT22;1320;48.128;11.592;2022-07-01T05:35:11;21.40;99.90
2621;DHT22;1320;48.128;11.592;2022-07-01T05:37:37;21.50;99.90
2621;DHT22;1320;48.128;11.592;2022-07-01T05:40:03;21.50;99.90
2621;DHT22;1320;48.128;11.592;2022-07-01T05:42:29;21.60;99.90
2621;DHT22;1320;48.128;11.592;2022-07-01T05:44:55;21.60;99.90
2621;DHT22;1320;48.128;11.592;2022-07-01T05:47:20;21.60;99.90
2621;DHT22;1320;48.128;11.592;2022-07-01T05:49:46;21.60;99.90
2621;DHT22;1320;48.128;11.592;2022-07-01T05:52:12;21.50;99.90
2621;DHT22;1320;48.128;11.592;2022-07-01T05:54:37;21.50;99.90
2621;DHT22;1320;48.128;11.592;2022-07-01T05:57:03;21.40;99.90
2621;DHT22;1320;48.128;11.592;2022-07-01T05:59:29;21.40;99.90
2621;DHT22;1320;48.128;11.592;2022-07-01T06:01:55;21.30;99.90
2621;DHT22;1320;48.128;11.592;2022-07-01T06:04:20;21.30;99.90
2621;DHT22;1320;48.128;11.592;2022-07-01T06:06:46;21.30;99.90
2621;DHT22;1320;48.128;11.592;2022-07-01T06:09:12;21.40;99.90
2621;DHT22;1320;48.128;11.592;2022-07-01T06:11:37;21.40;99.90
2621;DHT22;1320;48.128;11.592;2022-07-01T06:14:03;21.50;99.90
2621;DHT22;1320;48.128;11.592;2022-07-01T06:16:29;21.50;99.90
2621;DHT22;1320;48.128;11.592;2022-07-01T06:18:54;21.50;99.90
2621;DHT22;1320;48.128;11.592;2022-07-01T06:21:20;21.60;99.90
2621;DHT22;1320;48.128;11.592;2022-07-01T06:23:46;21.70;99.90
2621;DHT22;1320;48.128;11.592;2022-07-01T06:26:12;21.80;99.90
2621;DHT22;1320;48.128;11.592;2022-07-01T06:28:37;21.90;99.90
2621;DHT22;1320;48.128;11.592;2022-07-01T06:31:03;21.90;99.90
2621;DHT22;1320;48.128;11.592;2022-07-01T06:33:29;21.90;99.90
2621;DHT22;1320;48.128;11.592;2022-07-01T06:35:56;21.90;99.90
2621;DHT22;1320;48.128;11.592;2022-07-01T06:38:23;21.90;99.90
2621;DHT22;1320;48.128;11.592;2022-07-01T06:40:49;21.90;99.90
2621;DHT22;1320;48.128;11.592;2022-07-01T06:43:33;22.00;99.90
2621;DHT22;1320;48.128;11.592;2022-07-01T06:46:00;22.00;99.90
2621;DHT22;1320;48.128;11.592;2022-07-01T06:48:26;22.10;99.90
2621;DHT22;1320;48.128;11.592;2022-07-01T06:50:51;22.00;99.90
2621;DHT22;1320;48.128;11.592;2022-07-01T06:53:17;21.90;99.90
2621;DHT22;1320;48.128;11.592;2022-07-01T06:55:43;21.90;99.90
2621;DHT22;1320;48.128;11.592;2022-07-01T06:58:08;21.90;99.90
2621;DHT22;1320;48.128;11.592;2022-07-01T07:00:35;21.90;99.90
2621;DHT22;1320;48.128;11.592;2022-07-01T07:03:01;21.90;99.90
2621;DHT22;1320;48.128;11.592;2022-07-01T07:05:27;21.80;99.90
2621;DHT22;1320;48.128;11.592;2022-07-01T07:07:55;21.80;99.90
2621;DHT22;1320;48.128;11.592;2022-07-01T07:10:21;21.80;99.90
2621;DHT22;1320;48.128;11.592;2022-07-01T07:12:47;21.80;99.90
2621;DHT22;1320;48.128;11.592;2022-07-01T07:15:12;21.80;99.90
2621;DHT22;1320;48.128;11.592;2022-07-01T07:17:38;21.80;99.90
2621;DHT22;1320;48.128;11.592;2022-07-01T07:20:04;21.90;99.90
2621;DHT22;1320;48.128;11.592;2022-07-01T07:22:30;22.00;99.90
2621;DHT22;1320;48.128;11.592;2022-07-01T07:24:55;22.10;99.90
2621;DHT22;1320;48.128;11.592;2022-07-01T07:27:21;22.20;99.90
2621;DHT22;1320;48.128;11.592;2022-07-01T07:29:47;22.30;99.90
2621;DHT22;1320;48.128;11.592;2022-07-01T07:32:12;22.30;99.90
2621;DHT22;1320;48.128;11.592;2022-07-01T07:34:38;22.40;99.90
2621;DHT22;1320;48.128;11.592;2022-07-01T07:37:04;22.30;99.90
2621;DHT22;1320;48.128;11.592;2022-07-01T07:39:30;22.30;99.90
2621;DHT22;1320;48.128;11.592;2022-07-01T07:41:56;22.30;99.90
2621;DHT22;1320;48.128;11.592;2022-07-01T07:44:21;22.30;99.90
2621;DHT22;1320;48.128;11.592;2022-07-01T07:46:47;22.20;99.90
2621;DHT22;1320;48.128;11.592;2022-07-01T07:49:13;22.20;99.90
2621;DHT22;1320;48.128;11.592;2022-07-01T07:51:38;22.20;99.90
2621;DHT22;1320;48.128;11.592;2022-07-01T07:54:04;22.10;99.90
2621;DHT22;1320;48.128;11.592;2022-07-01T07:56:30;22.10;99.90
2621;DHT22;1320;48.128;11.592;2022-07-01T07:58:56;22.10;99.90
2621;DHT22;1320;48.128;11.592;2022-07-01T08:01:22;22.00;99.90
2621;DHT22;1320;48.128;11.592;2022-07-01T08:03:47;21.90;99.90
2621;DHT22;1320;48.128;11.592;2022-07-01T08:06:13;21.80;99.90
2621;DHT22;1320;48.128;11.592;2022-07-01T08:08:39;21.70;99.90
2621;DHT22;1320;48.128;11.592;2022-07-01T08:11:05;21.60;99.90
2621;DHT22;1320;48.128;11.592;2022-07-01T08:13:31;21.50;99.90
2621;DHT22;1320;48.128;11.592;2022-07-01T08:15:57;21.40;99.90
2621;DHT22;1320;48.128;11.592;2022-07-01T08:18:23;21.30;99.90
2621;DHT22;1320;48.128;11.592;2022-07-01T08:20:49;21.10;99.90
2621;DHT22;1320;48.128;11.592;2022-07-01T08:23:21;20.90;99.90
2621;DHT22;1320;48.128;11.592;2022-07-01T08:25:50;20.60;99.90
2621;DHT22;1320;48.128;11.592;2022-07-01T08:28:16;20.20;99.90
2621;DHT22;1320;48.128;11.592;2022-07-01T08:30:42;19.70;99.90
2621;DHT22;1320;48.128;11.592;2022-07-01T08:33:08;19.30;99.90
2621;DHT22;1320;48.128;11.592;2022-07-01T08:38:00;18.60;99.90
2621;DHT22;1320;48.128;11.592;2022-07-01T08:40:28;18.30;99.90
2621;DHT22;1320;48.128;11.592;2022-07-01T08:43:04;18.10;99.90
2621;DHT22;1320;48.128;11.592;2022-07-01T08:45:33;17.80;99.90
2621;DHT22;1320;48.128;11.592;2022-07-01T08:48:02;17.70;99.90
2621;DHT22;1320;48.128;11.592;2022-07-01T08:50:29;17.60;99.90
2621;DHT22;1320;48.128;11.592;2022-07-01T08:52:55;17.40;99.90
2621;DHT22;1320;48.128;11.592;2022-07-01T08:55:21;17.30;99.90
2621;DHT22;1320;48.128;11.592;2022-07-01T08:57:48;17.30;99.90
2621;DHT22;1320;48.128;11.592;2022-07-01T09:00:14;17.30;99.90
2621;DHT22;1320;48.128;11.592;2022-07-01T09:05:21;17.20;99.90
2621;DHT22;1320;48.128;11.592;2022-07-01T09:07:48;17.10;99.90
2621;DHT22;1320;48.128;11.592;2022-07-01T09:10:16;17.10;99.90
2621;DHT22;1320;48.128;11.592;2022-07-01T09:12:46;17.10;99.90
2621;DHT22;1320;48.128;11.592;2022-07-01T09:15:23;17.20;99.90
2621;DHT22;1320;48.128;11.592;2022-07-01T09:18:06;17.30;99.90
2621;DHT22;1320;48.128;11.592;2022-07-01T09:20:36;17.40;99.90
2621;DHT22;1320;48.128;11.592;2022-07-01T09:25:43;17.50;99.90
2621;DHT22;1320;48.128;11.592;2022-07-01T09:28:18;17.50;99.90
2621;DHT22;1320;48.128;11.592;2022-07-01T09:30:46;17.60;99.90
2621;DHT22;1320;48.128;11.592;2022-07-01T09:33:17;17.60;99.90
2621;DHT22;1320;48.128;11.592;2022-07-01T09:35:44;17.60;99.90
2621;DHT22;1320;48.128;11.592;2022-07-01T09:38:12;17.70;99.90
2621;DHT22;1320;48.128;11.592;2022-07-01T09:43:27;17.60;99.90
2621;DHT22;1320;48.128;11.592;2022-07-01T09:48:24;17.60;99.90
2621;DHT22;1320;48.128;11.592;2022-07-01T09:50:50;17.60;99.90
2621;DHT22;1320;48.128;11.592;2022-07-01T09:53:16;17.60;99.90
2621;DHT22;1320;48.128;11.592;2022-07-01T09:55:42;17.60;99.90
2621;DHT22;1320;48.128;11.592;2022-07-01T09:58:08;17.60;99.90
2621;DHT22;1320;48.128;11.592;2022-07-01T10:00:36;17.60;99.90
2621;DHT22;1320;48.128;11.592;2022-07-01T10:03:03;17.70;99.90
2621;DHT22;1320;48.128;11.592;2022-07-01T10:05:31;17.70;99.90
2621;DHT22;1320;48.128;11.592;2022-07-01T10:13:50;17.60;99.90
2621;DHT22;1320;48.128;11.592;2022-07-01T10:16:17;17.50;99.90
2621;DHT22;1320;48.128;11.592;2022-07-01T10:18:43;17.40;99.90
2621;DHT22;1320;48.128;11.592;2022-07-01T10:21:09;17.40;99.90
2621;DHT22;1320;48.128;11.592;2022-07-01T10:23:43;17.30;99.90
2621;DHT22;1320;48.128;11.592;2022-07-01T10:26:09;17.30;99.90
2621;DHT22;1320;48.128;11.592;2022-07-01T10:31:18;17.30;99.90
2621;DHT22;1320;48.128;11.592;2022-07-01T10:33:58;17.30;99.90
2621;DHT22;1320;48.128;11.592;2022-07-01T10:36:29;17.30;99.90
2621;DHT22;1320;48.128;11.592;2022-07-01T10:44:05;17.50;99.90
2621;DHT22;1320;48.128;11.592;2022-07-01T10:46:45;17.50;99.90
2621;DHT22;1320;48.128;11.592;2022-07-01T10:49:17;17.50;99.90
2621;DHT22;1320;48.128;11.592;2022-07-01T10:51:51;17.50;99.90
2621;DHT22;1320;48.128;11.592;2022-07-01T11:02:33;17.50;99.90
2621;DHT22;1320;48.128;11.592;2022-07-01T11:05:00;17.50;99.90
2621;DHT22;1320;48.128;11.592;2022-07-01T11:07:34;17.50;99.90
2621;DHT22;1320;48.128;11.592;2022-07-01T11:10:02;17.50;99.90
2621;DHT22;1320;48.128;11.592;2022-07-01T11:12:29;17.50;99.90
2621;DHT22;1320;48.128;11.592;2022-07-01T11:14:56;17.50;99.90
2621;DHT22;1320;48.128;11.592;2022-07-01T11:17:25;17.50;99.90
2621;DHT22;1320;48.128;11.592;2022-07-01T11:19:52;17.60;99.90
2621;DHT22;1320;48.128;11.592;2022-07-01T11:22:20;17.70;99.90
2621;DHT22;1320;48.128;11.592;2022-07-01T11:24:46;17.70;99.90
2621;DHT22;1320;48.128;11.592;2022-07-01T11:27:16;17.80;99.90
2621;DHT22;1320;48.128;11.592;2022-07-01T11:29:42;17.90;99.90
2621;DHT22;1320;48.128;11.592;2022-07-01T11:32:07;17.90;99.90
2621;DHT22;1320;48.128;11.592;2022-07-01T11:34:36;17.80;99.90
2621;DHT22;1320;48.128;11.592;2022-07-01T11:37:09;17.80;99.90
2621;DHT22;1320;48.128;11.592;2022-07-01T11:40:23;17.80;99.90
2621;DHT22;1320;48.128;11.592;2022-07-01T11:42:49;17.80;99.90
2621;DHT22;1320;48.128;11.592;2022-07-01T11:45:25;17.80;99.90
2621;DHT22;1320;48.128;11.592;2022-07-01T11:47:52;17.80;99.90
2621;DHT22;1320;48.128;11.592;2022-07-01T11:50:18;17.80;99.90
2621;DHT22;1320;48.128;11.592;2022-07-01T11:52:45;17.80;99.90
2621;DHT22;1320;48.128;11.592;2022-07-01T11:55:11;17.80;99.90
2621;DHT22;1320;48.128;11.592;2022-07-01T11:57:37;17.90;99.90
2621;DHT22;1320;48.128;11.592;2022-07-01T12:00:12;17.90;99.90
2621;DHT22;1320;48.128;11.592;2022-07-01T12:02:38;17.90;99.90
2621;DHT22;1320;48.128;11.592;2022-07-01T12:05:05;17.80;99.90
2621;DHT22;1320;48.128;11.592;2022-07-01T12:07:31;17.80;99.90
2621;DHT22;1320;48.128;11.592;2022-07-01T12:09:59;17.80;99.90
2621;DHT22;1320;48.128;11.592;2022-07-01T12:12:27;17.80;99.90
2621;DHT22;1320;48.128;11.592;2022-07-01T12:14:58;17.70;99.90
2621;DHT22;1320;48.128;11.592;2022-07-01T12:17:26;17.80;99.90
2621;DHT22;1320;48.128;11.592;2022-07-01T12:19:53;17.80;99.90
2621;DHT22;1320;48.128;11.592;2022-07-01T12:22:22;17.80;99.90
2621;DHT22;1320;48.128;11.592;2022-07-01T12:25:14;17.80;99.90
2621;DHT22;1320;48.128;11.592;2022-07-01T12:27:43;17.80;99.90
2621;DHT22;1320;48.128;11.592;2022-07-01T12:30:10;17.70;99.90
2621;DHT22;1320;48.128;11.592;2022-07-01T12:32:38;17.70;99.90
2621;DHT22;1320;48.128;11.592;2022-07-01T12:35:06;17.60;99.90
2621;DHT22;1320;48.128;11.592;2022-07-01T12:37:55;17.70;99.90
2621;DHT22;1320;48.128;11.592;2022-07-01T12:40:23;17.70;99.90
2621;DHT22;1320;48.128;11.592;2022-07-01T12:42:49;17.80;99.90
2621;DHT22;1320;48.128;11.592;2022-07-01T12:45:17;17.80;99.90
2621;DHT22;1320;48.128;11.592;2022-07-01T12:47:51;17.80;99.90
2621;DHT22;1320;48.128;11.592;2022-07-01T12:50:26;17.80;99.90
2621;DHT22;1320;48.128;11.592;2022-07-01T12:53:18;17.80;99.90
2621;DHT22;1320;48.128;11.592;2022-07-01T12:55:49;17.70;99.90
2621;DHT22;1320;48.128;11.592;2022-07-01T12:58:24;17.60;99.90
2621;DHT22;1320;48.128;11.592;2022-07-01T13:00:52;17.60;99.90
2621;DHT22;1320;48.128;11.592;2022-07-01T13:03:20;17.50;99.90
2621;DHT22;1320;48.128;11.592;2022-07-01T13:05:46;17.40;99.90
2621;DHT22;1320;48.128;11.592;2022-07-01T13:08:12;17.30;99.90
2621;DHT22;1320;48.128;11.592;2022-07-01T13:10:37;17.30;99.90
2621;DHT22;1320;48.128;11.592;2022-07-01T13:13:04;17.20;99.90
2621;DHT22;1320;48.128;11.592;2022-07-01T13:15:30;17.20;99.90
2621;DHT22;1320;48.128;11.592;2022-07-01T13:17:56;17.20;99.90
2621;DHT22;1320;48.128;11.592;2022-07-01T13:20:22;17.20;99.90
2621;DHT22;1320;48.128;11.592;2022-07-01T13:22:48;17.30;99.90
2621;DHT22;1320;48.128;11.592;2022-07-01T13:25:14;17.30;99.90
2621;DHT22;1320;48.128;11.592;2022-07-01T13:27:40;17.40;99.90
2621;DHT22;1320;48.128;11.592;2022-07-01T13:30:09;17.40;99.90
2621;DHT22;1320;48.128;11.592;2022-07-01T13:32:36;17.40;99.90
2621;DHT22;1320;48.128;11.592;2022-07-01T13:35:02;17.40;99.90
2621;DHT22;1320;48.128;11.592;2022-07-01T13:37:28;17.30;99.90
2621;DHT22;1320;48.128;11.592;2022-07-01T13:39:54;17.30;99.90
2621;DHT22;1320;48.128;11.592;2022-07-01T13:42:20;17.30;99.90
2621;DHT22;1320;48.128;11.592;2022-07-01T13:44:45;17.40;99.90
2621;DHT22;1320;48.128;11.592;2022-07-01T13:47:11;17.40;99.90
2621;DHT22;1320;48.128;11.592;2022-07-01T13:49:40;17.40;99.90
2621;DHT22;1320;48.128;11.592;2022-07-01T13:52:08;17.40;99.90
2621;DHT22;1320;48.128;11.592;2022-07-01T13:54:34;17.40;99.90
2621;DHT22;1320;48.128;11.592;2022-07-01T13:56:59;17.40;99.90
2621;DHT22;1320;48.128;11.592;2022-07-01T13:59:25;17.40;99.90
2621;DHT22;1320;48.128;11.592;2022-07-01T14:01:51;17.40;99.90
2621;DHT22;1320;48.128;11.592;2022-07-01T14:04:16;17.40;99.90
2621;DHT22;1320;48.128;11.592;2022-07-01T14:06:42;17.40;99.90
2621;DHT22;1320;48.128;11.592;2022-07-01T14:09:07;17.30;99.90
2621;DHT22;1320;48.128;11.592;2022-07-01T14:11:33;17.30;99.90
2621;DHT22;1320;48.128;11.592;2022-07-01T14:13:59;17.30;99.90
2621;DHT22;1320;48.128;11.592;2022-07-01T14:16:24;17.30;99.90
2621;DHT22;1320;48.128;11.592;2022-07-01T14:18:51;17.30;99.90
2621;DHT22;1320;48.128;11.592;2022-07-01T14:21:18;17.30;99.90
2621;DHT22;1320;48.128;11.592;2022-07-01T14:23:43;17.30;99.90
2621;DHT22;1320;48.128;11.592;2022-07-01T14:26:13;17.30;99.90
2621;DHT22;1320;48.128;11.592;2022-07-01T14:28:38;17.30;99.90
2621;DHT22;1320;48.128;11.592;2022-07-01T14:31:05;17.30;99.90
2621;DHT22;1320;48.128;11.592;2022-07-01T14:33:31;17.20;99.90
2621;DHT22;1320;48.128;11.592;2022-07-01T14:35:57;17.20;99.90
2621;DHT22;1320;48.128;11.592;2022-07-01T14:38:23;17.10;99.90
2621;DHT22;1320;48.128;11.592;2022-07-01T14:40:49;17.10;99.90
2621;DHT22;1320;48.128;11.592;2022-07-01T14:43:14;17.10;99.90
2621;DHT22;1320;48.128;11.592;2022-07-01T14:45:40;17.10;99.90
2621;DHT22;1320;48.128;11.592;2022-07-01T14:48:07;17.00;99.90
2621;DHT22;1320;48.128;11.592;2022-07-01T14:50:33;17.00;99.90
2621;DHT22;1320;48.128;11.592;2022-07-01T14:53:00;17.00;99.90
2621;DHT22;1320;48.128;11.592;2022-07-01T14:55:27;17.10;99.90
2621;DHT22;1320;48.128;11.592;2022-07-01T14:57:53;17.10;99.90
2621;DHT22;1320;48.128;11.592;2022-07-01T15:00:19;17.20;99.90
2621;DHT22;1320;48.128;11.592;2022-07-01T15:02:45;17.30;99.90
2621;DHT22;1320;48.128;11.592;2022-07-01T15:05:10;17.30;99.90
2621;DHT22;1320;48.128;11.592;2022-07-01T15:07:36;17.40;99.90
2621;DHT22;1320;48.128;11.592;2022-07-01T15:10:03;17.50;99.90
2621;DHT22;1320;48.128;11.592;2022-07-01T15:12:30;17.60;99.90
2621;DHT22;1320;48.128;11.592;2022-07-01T15:14:56;17.60;99.90
2621;DHT22;1320;48.128;11.592;2022-07-01T15:17:22;17.70;99.90
2621;DHT22;1320;48.128;11.592;2022-07-01T15:19:48;17.70;99.90
2621;DHT22;1320;48.128;11.592;2022-07-01T15:22:14;17.70;99.90
2621;DHT22;1320;48.128;11.592;2022-07-01T15:24:40;17.60;99.90
2621;DHT22;1320;48.128;11.592;2022-07-01T15:27:07;17.50;99.90
2621;DHT22;1320;48.128;11.592;2022-07-01T15:29:33;17.50;99.90
2621;DHT22;1320;48.128;11.592;2022-07-01T15:32:00;17.50;99.90
2621;DHT22;1320;48.128;11.592;2022-07-01T15:34:26;17.50;99.90
2621;DHT22;1320;48.128;11.592;2022-07-01T15:36:52;17.50;99.90
2621;DHT22;1320;48.128;11.592;2022-07-01T15:39:18;17.60;99.90
2621;DHT22;1320;48.128;11.592;2022-07-01T15:41:44;17.70;99.90
2621;DHT22;1320;48.128;11.592;2022-07-01T15:44:11;17.80;99.90
2621;DHT22;1320;48.128;11.592;2022-07-01T15:46:37;17.80;99.90
2621;DHT22;1320;48.128;11.592;2022-07-01T15:49:03;17.80;99.90
2621;DHT22;1320;48.128;11.592;2022-07-01T15:51:29;17.90;99.90
2621;DHT22;1320;48.128;11.592;2022-07-01T15:53:55;18.00;99.90
2621;DHT22;1320;48.128;11.592;2022-07-01T15:56:29;18.00;99.90
2621;DHT22;1320;48.128;11.592;2022-07-01T15:58:58;18.00;99.90
2621;DHT22;1320;48.128;11.592;2022-07-01T16:01:24;17.90;99.90
2621;DHT22;1320;48.128;11.592;2022-07-01T16:03:51;17.90;99.90
2621;DHT22;1320;48.128;11.592;2022-07-01T16:06:19;17.90;99.90
2621;DHT22;1320;48.128;11.592;2022-07-01T16:08:47;17.90;99.90
2621;DHT22;1320;48.128;11.592;2022-07-01T16:11:15;17.90;99.90
2621;DHT22;1320;48.128;11.592;2022-07-01T16:13:48;17.90;99.90
2621;DHT22;1320;48.128;11.592;2022-07-01T16:16:19;18.00;99.90
2621;DHT22;1320;48.128;11.592;2022-07-01T16:18:48;18.00;99.90
2621;DHT22;1320;48.128;11.592;2022-07-01T16:21:14;18.10;99.90
2621;DHT22;1320;48.128;11.592;2022-07-01T16:23:41;18.20;99.90